createdAt,value
2023-05-08T00:01:00.970Z,19.30
2023-05-08T00:03:31.316Z,22.40
2023-05-08T00:06:00.408Z,28.03
2023-05-08T00:08:30.506Z,27.90
2023-05-08T00:11:00.853Z,29.70
2023-05-08T00:13:31.014Z,27.30
2023-05-08T00:16:01.030Z,27.93
2023-05-08T00:18:31.139Z,31.17
2023-05-08T00:21:01.281Z,33.23
2023-05-08T00:23:30.256Z,33.03
2023-05-08T00:25:57.688Z,35.77
2023-05-08T00:28:26.912Z,33.27
2023-05-08T00:31:01.204Z,29.90
2023-05-08T00:33:29.251Z,39.47
2023-05-08T00:36:03.388Z,31.13
2023-05-08T00:38:35.854Z,32.00
2023-05-08T00:41:05.994Z,30.33
2023-05-08T00:43:33.665Z,25.17
2023-05-08T00:46:01.836Z,28.47
2023-05-08T00:48:32.832Z,26.23
2023-05-08T00:51:06.490Z,27.00
2023-05-08T00:53:39.410Z,58.70
2023-05-08T00:56:13.871Z,28.37
2023-05-08T00:58:44.381Z,24.90
2023-05-08T01:01:14.923Z,23.03
2023-05-08T01:03:45.478Z,32.07
2023-05-08T01:06:12.722Z,20.43
2023-05-08T01:08:46.210Z,27.47
2023-05-08T01:11:34.082Z,22.83
2023-05-08T01:14:30.567Z,32.80
2023-05-08T01:16:58.625Z,29.13
2023-05-08T01:19:52.814Z,22.13
2023-05-08T01:23:01.615Z,18.93
2023-05-08T01:26:09.173Z,18.90
2023-05-08T01:29:26.256Z,21.77
2023-05-08T01:32:15.054Z,19.13
2023-05-08T01:35:08.894Z,31.63
2023-05-08T01:37:59.391Z,31.80
2023-05-08T01:40:48.332Z,38.10
2023-05-08T01:43:43.916Z,41.13
2023-05-08T01:46:17.722Z,39.27
2023-05-08T01:48:56.494Z,49.27
2023-05-08T01:51:27.953Z,51.07
2023-05-08T01:54:01.166Z,55.20
2023-05-08T01:56:30.179Z,131.80
2023-05-08T01:59:01.403Z,52.67
2023-05-08T02:01:33.434Z,67.17
2023-05-08T02:04:03.875Z,59.37
2023-05-08T02:06:33.530Z,61.17
2023-05-08T02:09:03.567Z,63.23
2023-05-08T02:11:39.043Z,52.40
2023-05-08T02:14:09.632Z,41.27
2023-05-08T02:16:40.434Z,76.47
2023-05-08T02:19:16.329Z,46.23
2023-05-08T02:21:46.622Z,51.87
2023-05-08T02:24:15.230Z,46.70
2023-05-08T02:26:44.197Z,55.73
2023-05-08T02:29:12.315Z,63.17
2023-05-08T02:31:42.799Z,82.37
2023-05-08T02:34:12.821Z,48.67
2023-05-08T02:36:43.603Z,41.97
2023-05-08T02:39:15.171Z,39.37
2023-05-08T02:41:45.741Z,36.53
2023-05-08T02:44:13.886Z,60.53
2023-05-08T02:47:13.830Z,44.77
2023-05-08T02:49:54.664Z,72.90
2023-05-08T02:52:30.944Z,33.87
2023-05-08T02:55:04.695Z,35.33
2023-05-08T02:58:15.506Z,36.67
2023-05-08T03:00:57.405Z,33.17
2023-05-08T03:03:38.169Z,30.77
2023-05-08T03:06:13.866Z,58.47
2023-05-08T03:08:43.273Z,108.27
2023-05-08T03:11:15.464Z,43.33
2023-05-08T03:13:44.767Z,37.57
2023-05-08T03:16:24.839Z,38.77
2023-05-08T03:19:00.191Z,35.07
2023-05-08T03:21:30.794Z,68.27
2023-05-08T03:23:59.960Z,59.37
2023-05-08T03:26:30.857Z,40.00
2023-05-08T03:29:00.300Z,64.77
2023-05-08T03:31:28.595Z,28.30
2023-05-08T03:33:58.173Z,25.63
2023-05-08T03:36:27.417Z,47.53
2023-05-08T03:38:56.809Z,29.43
2023-05-08T03:41:27.063Z,45.17
2023-05-08T03:43:56.296Z,28.77
2023-05-08T03:46:26.671Z,26.10
2023-05-08T03:48:57.314Z,50.73
2023-05-08T03:51:28.549Z,85.60
2023-05-08T03:54:01.556Z,28.00
2023-05-08T03:56:31.913Z,23.70
2023-05-08T03:59:19.295Z,40.73
2023-05-08T04:01:52.357Z,22.20
2023-05-08T04:04:33.779Z,22.93
2023-05-08T04:07:27.059Z,24.60
2023-05-08T04:10:08.562Z,22.80
2023-05-08T04:13:04.944Z,28.10
2023-05-08T04:15:35.225Z,39.10
2023-05-08T04:18:16.534Z,22.07
2023-05-08T04:20:48.189Z,23.87
2023-05-08T04:23:20.478Z,22.63
2023-05-08T04:25:51.563Z,29.63
2023-05-08T04:28:21.859Z,22.27
2023-05-08T04:30:49.652Z,24.73
2023-05-08T04:33:20.218Z,24.80
2023-05-08T04:35:50.375Z,30.93
2023-05-08T04:38:20.515Z,41.63
2023-05-08T04:40:47.487Z,26.77
2023-05-08T04:43:14.590Z,27.50
2023-05-08T04:45:44.645Z,27.67
2023-05-08T04:48:15.037Z,27.20
2023-05-08T04:50:45.100Z,30.87
2023-05-08T04:53:14.049Z,26.37
2023-05-08T04:55:44.102Z,22.73
2023-05-08T04:58:14.178Z,24.87
2023-05-08T05:00:43.165Z,25.13
2023-05-08T05:03:21.415Z,24.73
2023-05-08T05:05:48.537Z,29.13
2023-05-08T05:08:17.543Z,31.10
2023-05-08T05:10:44.487Z,31.23
2023-05-08T05:13:15.741Z,29.20
2023-05-08T05:15:46.173Z,23.23
2023-05-08T05:18:18.911Z,31.67
2023-05-08T05:20:47.929Z,30.13
2023-05-08T05:23:17.938Z,23.43
2023-05-08T05:25:47.986Z,27.00
2023-05-08T05:28:15.001Z,25.63
2023-05-08T05:30:47.577Z,28.27
2023-05-08T05:33:17.654Z,31.30
2023-05-08T05:35:44.737Z,29.10
2023-05-08T05:38:14.765Z,23.53
2023-05-08T05:40:51.024Z,28.20
2023-05-08T05:43:19.102Z,24.23
2023-05-08T05:45:48.102Z,33.97
2023-05-08T05:48:18.136Z,29.77
2023-05-08T05:50:48.422Z,30.20
2023-05-08T05:53:18.525Z,30.63
2023-05-08T05:55:48.546Z,30.50
2023-05-08T05:58:18.698Z,29.50
2023-05-08T06:00:47.864Z,26.80
2023-05-08T06:03:16.051Z,29.57
2023-05-08T06:05:43.147Z,25.43
2023-05-08T06:08:11.448Z,24.53
2023-05-08T06:10:38.541Z,26.27
2023-05-08T06:13:09.745Z,30.37
2023-05-08T06:15:36.938Z,24.50
2023-05-08T06:18:07.174Z,23.33
2023-05-08T06:20:40.435Z,27.13
2023-05-08T06:23:08.455Z,26.03
2023-05-08T06:25:38.605Z,26.73
2023-05-08T06:28:08.366Z,25.50
2023-05-08T06:30:38.414Z,28.00
2023-05-08T06:33:06.611Z,27.00
2023-05-08T06:35:34.719Z,22.73
2023-05-08T06:38:04.897Z,23.07
2023-05-08T06:40:31.909Z,20.33
2023-05-08T06:42:59.103Z,20.23
2023-05-08T06:45:26.289Z,30.40
2023-05-08T06:47:56.517Z,26.87
2023-05-08T06:50:23.640Z,22.53
2023-05-08T06:52:51.832Z,26.80
2023-05-08T06:55:18.956Z,24.63
2023-05-08T06:57:46.919Z,25.07
2023-05-08T07:00:14.339Z,24.00
2023-05-08T07:02:41.357Z,25.00
2023-05-08T07:05:09.033Z,23.40
2023-05-08T07:07:38.020Z,21.50
2023-05-08T07:10:07.932Z,21.53
2023-05-08T07:12:36.062Z,21.63
2023-05-08T07:15:17.738Z,22.10
2023-05-08T07:17:51.249Z,18.97
2023-05-08T07:20:18.413Z,19.33
2023-05-08T07:22:45.592Z,20.20
2023-05-08T07:25:13.128Z,19.47
2023-05-08T07:27:41.468Z,23.13
2023-05-08T07:30:09.953Z,21.30
2023-05-08T07:32:43.045Z,23.13
2023-05-08T07:35:12.977Z,23.60
2023-05-08T07:37:47.558Z,21.30
2023-05-08T07:40:14.644Z,19.60
2023-05-08T07:42:45.244Z,20.97
2023-05-08T07:45:14.767Z,20.93
2023-05-08T07:47:54.987Z,18.33
2023-05-08T07:50:26.095Z,20.17
2023-05-08T07:52:58.385Z,19.03
2023-05-08T07:55:26.448Z,22.30
2023-05-08T07:57:59.586Z,19.33
2023-05-08T08:00:30.059Z,18.20
2023-05-08T08:03:07.281Z,19.47
2023-05-08T08:05:34.548Z,20.53
2023-05-08T08:08:12.742Z,18.50
2023-05-08T08:10:40.889Z,16.93
2023-05-08T08:13:10.862Z,16.43
2023-05-08T08:15:37.905Z,19.23
2023-05-08T08:18:08.086Z,22.00
2023-05-08T08:20:41.199Z,20.63
2023-05-08T08:23:08.299Z,23.03
2023-05-08T08:25:36.361Z,21.90
2023-05-08T08:28:03.389Z,17.77
2023-05-08T08:30:31.458Z,15.40
2023-05-08T08:33:02.506Z,16.57
2023-05-08T08:35:30.628Z,14.80
2023-05-08T08:37:59.680Z,14.30
2023-05-08T08:40:29.923Z,14.30
2023-05-08T08:42:59.600Z,15.53
2023-05-08T08:45:31.006Z,15.47
2023-05-08T08:48:02.523Z,14.57
2023-05-08T08:50:44.016Z,16.40
2023-05-08T08:53:21.646Z,16.00
2023-05-08T08:55:53.854Z,19.57
2023-05-08T08:58:31.424Z,22.30
2023-05-08T09:01:01.961Z,17.17
2023-05-08T09:03:29.467Z,21.40
2023-05-08T09:06:03.309Z,19.17
2023-05-08T09:08:32.684Z,15.73
2023-05-08T09:11:02.472Z,16.77
2023-05-08T09:13:32.782Z,16.07
2023-05-08T09:16:01.183Z,16.77
2023-05-08T09:18:28.297Z,17.40
2023-05-08T09:21:00.815Z,17.30
2023-05-08T09:23:31.273Z,16.80
2023-05-08T09:25:58.231Z,18.07
2023-05-08T09:28:27.357Z,23.63
2023-05-08T09:31:01.735Z,18.37
2023-05-08T09:33:30.274Z,16.67
2023-05-08T09:35:59.478Z,16.47
2023-05-08T09:38:38.526Z,15.23
2023-05-08T09:41:16.544Z,18.83
2023-05-08T09:44:04.423Z,16.40
2023-05-08T09:46:34.299Z,15.87
2023-05-08T09:49:04.501Z,21.07
2023-05-08T09:51:34.747Z,17.43
2023-05-08T09:54:06.584Z,19.60
2023-05-08T09:56:39.508Z,18.13
2023-05-08T09:59:24.175Z,18.80
2023-05-08T10:01:53.514Z,15.03
2023-05-08T10:04:38.006Z,16.37
2023-05-08T10:07:08.121Z,19.67
2023-05-08T10:09:49.932Z,16.63
2023-05-08T10:12:21.455Z,17.77
2023-05-08T10:14:50.241Z,16.67
2023-05-08T10:17:26.007Z,20.00
2023-05-08T10:20:00.141Z,17.10
2023-05-08T10:22:32.437Z,18.43
2023-05-08T10:25:02.969Z,17.90
2023-05-08T10:27:42.352Z,18.83
2023-05-08T10:30:13.941Z,15.77
2023-05-08T10:32:52.106Z,17.23
2023-05-08T10:35:23.302Z,15.97
2023-05-08T10:37:51.095Z,15.97
2023-05-08T10:40:21.492Z,18.10
2023-05-08T10:42:52.305Z,17.00
2023-05-08T10:45:19.454Z,16.73
2023-05-08T10:48:05.847Z,19.87
2023-05-08T10:50:51.794Z,19.07
2023-05-08T10:53:40.374Z,18.10
2023-05-08T10:56:09.808Z,20.50
2023-05-08T10:58:41.100Z,19.43
2023-05-08T11:01:08.269Z,20.77
2023-05-08T11:03:44.183Z,19.63
2023-05-08T11:06:12.230Z,23.30
2023-05-08T11:09:00.923Z,21.87
2023-05-08T11:11:33.805Z,19.20
2023-05-08T11:14:13.678Z,22.07
2023-05-08T11:17:01.727Z,18.93
2023-05-08T11:19:31.951Z,27.00
2023-05-08T11:22:23.313Z,22.37
2023-05-08T11:24:54.939Z,20.73
2023-05-08T11:27:38.585Z,20.80
2023-05-08T11:30:36.198Z,22.90
2023-05-08T11:33:07.014Z,19.70
2023-05-08T11:35:57.685Z,19.07
2023-05-08T11:38:27.693Z,22.73
2023-05-08T11:41:04.666Z,18.70
2023-05-08T11:43:38.615Z,19.40
2023-05-08T11:46:15.611Z,17.97
2023-05-08T11:48:44.094Z,18.00
2023-05-08T11:51:11.542Z,18.00
2023-05-08T11:53:43.543Z,17.77
2023-05-08T11:56:11.736Z,19.13
2023-05-08T11:58:38.863Z,19.63
2023-05-08T12:01:06.889Z,17.60
2023-05-08T12:03:37.196Z,20.10
2023-05-08T12:06:04.433Z,28.03
2023-05-08T12:08:39.487Z,30.10
2023-05-08T12:11:09.592Z,26.40
2023-05-08T12:13:38.575Z,22.07
2023-05-08T12:16:07.685Z,29.13
2023-05-08T12:18:42.199Z,22.80
2023-05-08T12:21:11.529Z,27.37
2023-05-08T12:23:41.822Z,20.43
2023-05-08T12:26:12.794Z,31.00
2023-05-08T12:28:40.938Z,26.93
2023-05-08T12:31:12.067Z,23.40
2023-05-08T12:33:42.686Z,19.90
2023-05-08T12:36:13.548Z,32.73
2023-05-08T12:38:40.628Z,20.80
2023-05-08T12:41:11.594Z,24.13
2023-05-08T12:43:41.690Z,18.77
2023-05-08T12:46:14.212Z,18.10
2023-05-08T12:48:41.239Z,19.43
2023-05-08T12:51:17.431Z,27.40
2023-05-08T12:54:03.345Z,36.93
2023-05-08T12:56:32.437Z,21.93
2023-05-08T12:59:01.509Z,17.77
2023-05-08T13:01:30.779Z,18.67
2023-05-08T13:04:02.095Z,17.43
2023-05-08T13:06:32.499Z,17.37
2023-05-08T13:09:02.875Z,14.90
2023-05-08T13:11:34.430Z,15.87
2023-05-08T13:14:01.561Z,26.87
2023-05-08T13:16:42.879Z,19.10
2023-05-08T13:19:10.311Z,15.30
2023-05-08T13:21:40.569Z,13.57
2023-05-08T13:24:07.773Z,17.27
2023-05-08T13:26:40.828Z,11.60
2023-05-08T13:29:09.888Z,12.90
2023-05-08T13:31:39.987Z,8.43
2023-05-08T13:34:08.175Z,6.90
2023-05-08T13:36:38.458Z,6.57
2023-05-08T13:39:08.889Z,6.93
2023-05-08T13:41:38.990Z,9.70
2023-05-08T13:44:09.085Z,10.07
2023-05-08T13:46:39.119Z,6.00
2023-05-08T13:49:08.497Z,6.53
2023-05-08T13:51:38.601Z,9.80
2023-05-08T13:54:05.684Z,6.43
2023-05-08T13:56:35.777Z,7.50
2023-05-08T13:59:04.814Z,7.77
2023-05-08T14:01:32.884Z,5.80
2023-05-08T14:04:02.155Z,4.13
2023-05-08T14:06:32.673Z,8.13
2023-05-08T14:09:00.653Z,5.30
2023-05-08T14:11:29.737Z,6.17
2023-05-08T14:13:56.784Z,5.57
2023-05-08T14:16:23.799Z,4.50
2023-05-08T14:18:58.978Z,9.20
2023-05-08T14:21:28.054Z,8.23
2023-05-08T14:23:56.112Z,5.53
2023-05-08T14:26:26.790Z,5.70
2023-05-08T14:28:53.861Z,7.23
2023-05-08T14:31:21.155Z,5.93
2023-05-08T14:33:48.096Z,7.83
2023-05-08T14:36:15.151Z,8.63
2023-05-08T14:38:43.151Z,9.77
2023-05-08T14:41:10.265Z,7.40
2023-05-08T14:43:37.327Z,7.33
2023-05-08T14:46:06.374Z,5.43
2023-05-08T14:48:33.397Z,3.50
2023-05-08T14:51:00.540Z,5.57
2023-05-08T14:53:27.822Z,9.17
2023-05-08T14:55:55.255Z,5.53
2023-05-08T14:58:22.564Z,6.87
2023-05-08T15:00:49.547Z,9.93
2023-05-08T15:03:17.944Z,6.87
2023-05-08T15:05:48.116Z,6.90
2023-05-08T15:08:18.276Z,7.20
2023-05-08T15:10:45.430Z,6.63
2023-05-08T15:13:13.550Z,5.33
2023-05-08T15:15:40.817Z,10.60
2023-05-08T15:18:12.823Z,9.00
2023-05-08T15:20:42.874Z,7.53
2023-05-08T15:23:12.958Z,6.40
2023-05-08T15:25:39.976Z,7.93
2023-05-08T15:28:06.929Z,8.70
2023-05-08T15:30:37.094Z,6.30
2023-05-08T15:33:05.193Z,6.77
2023-05-08T15:35:35.389Z,5.93
2023-05-08T15:38:06.089Z,4.07
2023-05-08T15:40:33.963Z,9.10
2023-05-08T15:43:01.494Z,5.10
2023-05-08T15:45:28.677Z,6.53
2023-05-08T15:47:58.793Z,6.53
2023-05-08T15:50:28.925Z,8.63
2023-05-08T15:52:56.966Z,7.73
2023-05-08T15:55:24.953Z,6.20
2023-05-08T15:57:58.040Z,7.83
2023-05-08T16:00:30.273Z,9.90
2023-05-08T16:03:08.853Z,6.67
2023-05-08T16:05:36.020Z,6.63
2023-05-08T16:08:14.475Z,9.60
2023-05-08T16:10:43.670Z,6.80
2023-05-08T16:13:11.708Z,3.70
2023-05-08T16:15:42.306Z,8.10
2023-05-08T16:18:09.411Z,5.20
2023-05-08T16:20:36.623Z,6.47
2023-05-08T16:23:06.667Z,5.77
2023-05-08T16:25:36.835Z,8.07
2023-05-08T16:28:04.997Z,6.13
2023-05-08T16:30:32.111Z,4.37
2023-05-08T16:33:02.453Z,8.30
2023-05-08T16:35:33.516Z,5.93
2023-05-08T16:38:05.178Z,3.80
2023-05-08T16:40:32.370Z,6.67
2023-05-08T16:43:02.449Z,5.03
2023-05-08T16:45:38.565Z,6.47
2023-05-08T16:48:06.717Z,4.93
2023-05-08T16:50:37.287Z,4.53
2023-05-08T16:53:07.320Z,4.70
2023-05-08T16:55:36.392Z,6.07
2023-05-08T16:58:07.235Z,6.63
2023-05-08T17:00:34.574Z,8.47
2023-05-08T17:03:02.630Z,6.83
2023-05-08T17:05:30.798Z,6.93
2023-05-08T17:08:00.932Z,8.67
2023-05-08T17:10:31.109Z,7.40
2023-05-08T17:13:01.213Z,7.17
2023-05-08T17:15:28.277Z,8.90
2023-05-08T17:17:57.324Z,8.90
2023-05-08T17:20:24.391Z,5.83
2023-05-08T17:22:54.014Z,6.00
2023-05-08T17:25:24.140Z,6.30
2023-05-08T17:27:52.220Z,8.23
2023-05-08T17:30:26.501Z,6.20
2023-05-08T17:32:56.554Z,6.10
2023-05-08T17:35:24.688Z,7.73
2023-05-08T17:37:51.610Z,8.57
2023-05-08T17:40:19.659Z,7.73
2023-05-08T17:42:48.828Z,7.23
2023-05-08T17:45:19.025Z,5.43
2023-05-08T17:47:49.119Z,7.43
2023-05-08T17:50:16.108Z,6.27
2023-05-08T17:52:46.178Z,7.00
2023-05-08T17:55:14.219Z,9.50
2023-05-08T17:57:42.303Z,6.33
2023-05-08T18:00:13.118Z,6.43
2023-05-08T18:02:43.405Z,8.17
2023-05-08T18:05:11.565Z,7.30
2023-05-08T18:07:40.949Z,8.37
2023-05-08T18:10:09.367Z,8.93
2023-05-08T18:12:36.451Z,8.70
2023-05-08T18:15:07.260Z,5.90
2023-05-08T18:17:34.313Z,6.67
2023-05-08T18:20:04.486Z,7.77
2023-05-08T18:22:32.553Z,6.87
2023-05-08T18:25:01.756Z,8.20
2023-05-08T18:27:34.508Z,7.80
2023-05-08T18:30:04.466Z,6.53
2023-05-08T18:32:33.565Z,7.37
2023-05-08T18:35:01.113Z,7.07
2023-05-08T18:37:31.188Z,7.23
2023-05-08T18:40:01.260Z,5.30
2023-05-08T18:42:31.300Z,6.90
2023-05-08T18:45:00.368Z,7.50
2023-05-08T18:47:28.383Z,5.20
2023-05-08T18:49:57.857Z,6.93
2023-05-08T18:52:28.047Z,7.43
2023-05-08T18:54:56.034Z,8.10
2023-05-08T18:57:24.047Z,7.80
2023-05-08T18:59:51.112Z,7.80
2023-05-08T19:02:19.129Z,6.77
2023-05-08T19:04:46.484Z,9.43
2023-05-08T19:07:15.590Z,11.83
2023-05-08T19:09:42.679Z,9.90
2023-05-08T19:12:15.717Z,10.00
2023-05-08T19:14:44.812Z,8.53
2023-05-08T19:17:15.242Z,7.20
2023-05-08T19:19:45.395Z,8.07
2023-05-08T19:22:12.516Z,10.90
2023-05-08T19:24:41.515Z,12.57
2023-05-08T19:27:08.747Z,13.27
2023-05-08T19:29:37.840Z,7.57
2023-05-08T19:32:08.099Z,13.73
2023-05-08T19:34:39.506Z,7.70
2023-05-08T19:37:07.681Z,8.93
2023-05-08T19:39:35.856Z,12.67
2023-05-08T19:42:05.936Z,6.93
2023-05-08T19:44:33.138Z,9.70
2023-05-08T19:47:03.727Z,6.60
2023-05-08T19:49:38.565Z,11.00
2023-05-08T19:52:06.092Z,8.10
2023-05-08T19:54:35.064Z,9.77
2023-05-08T19:57:05.234Z,9.97
2023-05-08T19:59:32.382Z,12.10
2023-05-08T20:02:01.697Z,12.03
2023-05-08T20:04:32.271Z,10.90
2023-05-08T20:07:02.479Z,9.90
2023-05-08T20:09:31.675Z,12.40
2023-05-08T20:11:59.156Z,10.77
2023-05-08T20:14:26.097Z,10.87
2023-05-08T20:16:56.168Z,12.53
2023-05-08T20:19:26.373Z,15.33
2023-05-08T20:21:54.386Z,12.80
2023-05-08T20:24:23.152Z,14.57
2023-05-08T20:26:54.301Z,14.03
2023-05-08T20:29:23.284Z,16.30
2023-05-08T20:31:51.417Z,13.27
2023-05-08T20:34:22.090Z,14.30
2023-05-08T20:36:49.330Z,17.23
2023-05-08T20:39:19.394Z,13.00
2023-05-08T20:41:49.559Z,13.83
2023-05-08T20:44:19.249Z,13.07
2023-05-08T20:46:48.221Z,14.17
2023-05-08T20:49:17.234Z,13.70
2023-05-08T20:51:44.265Z,14.93
2023-05-08T20:54:14.333Z,13.60
2023-05-08T20:56:44.397Z,17.20
2023-05-08T20:59:11.657Z,16.60
2023-05-08T21:01:38.780Z,16.33
2023-05-08T21:04:05.829Z,15.90
2023-05-08T21:06:32.892Z,17.80
2023-05-08T21:09:00.862Z,16.07
2023-05-08T21:11:28.849Z,13.43
2023-05-08T21:13:55.752Z,13.50
2023-05-08T21:16:27.800Z,15.47
2023-05-08T21:19:01.716Z,13.57
2023-05-08T21:21:31.870Z,14.20
2023-05-08T21:23:59.914Z,14.97
2023-05-08T21:26:29.963Z,14.53
2023-05-08T21:29:00.660Z,16.70
2023-05-08T21:31:29.025Z,15.80
2023-05-08T21:33:59.235Z,16.37
2023-05-08T21:36:34.161Z,16.63
2023-05-08T21:39:04.282Z,15.73
2023-05-08T21:41:34.368Z,16.07
2023-05-08T21:44:01.402Z,14.97
2023-05-08T21:46:28.505Z,20.20
2023-05-08T21:49:01.631Z,20.23
2023-05-08T21:51:31.898Z,12.10
2023-05-08T21:54:00.170Z,18.40
2023-05-08T21:56:27.215Z,15.27
2023-05-08T21:58:57.318Z,16.67
2023-05-08T22:01:27.485Z,16.87
2023-05-08T22:03:56.940Z,14.93
2023-05-08T22:06:23.980Z,17.43
2023-05-08T22:08:51.072Z,14.17
2023-05-08T22:11:18.068Z,14.70
2023-05-08T22:13:48.099Z,16.70
2023-05-08T22:16:15.175Z,17.63
2023-05-08T22:18:45.357Z,16.03
2023-05-08T22:21:15.399Z,15.53
2023-05-08T22:23:42.418Z,15.40
2023-05-08T22:26:11.809Z,15.73
2023-05-08T22:28:41.834Z,12.10
2023-05-08T22:31:12.626Z,13.17
2023-05-08T22:33:41.169Z,13.10
2023-05-08T22:36:14.400Z,15.70
2023-05-08T22:38:42.448Z,12.67
2023-05-08T22:41:09.969Z,13.23
2023-05-08T22:43:40.120Z,16.47
2023-05-08T22:46:08.133Z,19.63
2023-05-08T22:48:36.471Z,15.27
2023-05-08T22:51:06.698Z,14.57
2023-05-08T22:53:36.869Z,14.27
2023-05-08T22:56:09.888Z,16.50
2023-05-08T22:58:40.056Z,11.03
2023-05-08T23:01:09.340Z,12.17
2023-05-08T23:03:42.576Z,12.80
2023-05-08T23:06:09.539Z,12.90
2023-05-08T23:08:37.909Z,11.37
2023-05-08T23:11:07.970Z,12.57
2023-05-08T23:13:36.949Z,13.93
2023-05-08T23:16:04.202Z,12.23
2023-05-08T23:18:34.234Z,13.63
2023-05-08T23:21:09.007Z,13.77
2023-05-08T23:23:36.510Z,15.97
2023-05-08T23:26:05.225Z,18.17
2023-05-08T23:28:38.374Z,14.90
2023-05-08T23:31:05.593Z,15.60
2023-05-08T23:33:33.591Z,22.13
2023-05-08T23:36:03.918Z,16.87
2023-05-08T23:38:32.248Z,18.30
2023-05-08T23:41:01.367Z,16.00
2023-05-08T23:43:28.366Z,21.60
2023-05-08T23:45:58.498Z,17.93
2023-05-08T23:48:27.673Z,17.70
2023-05-08T23:50:57.768Z,17.37
2023-05-08T23:53:30.885Z,22.13
2023-05-08T23:55:58.144Z,18.07
2023-05-08T23:58:28.281Z,19.13
